sensor_id;sensor_type;location;lat;lon;timestamp;temperature;humidity
21306;DHT22;10812;51.838;5.838;2023-05-18T00:00:32;7.80;99.90
21306;DHT22;10812;51.838;5.838;2023-05-18T00:03:01;7.80;99.90
21306;DHT22;10812;51.838;5.838;2023-05-18T00:05:29;7.70;99.90
21306;DHT22;10812;51.838;5.838;2023-05-18T00:08:00;7.70;99.90
21306;DHT22;10812;51.838;5.838;2023-05-18T00:10:30;7.60;99.90
21306;DHT22;10812;51.838;5.838;2023-05-18T00:12:58;7.70;99.90
21306;DHT22;10812;51.838;5.838;2023-05-18T00:15:26;7.60;99.90
21306;DHT22;10812;51.838;5.838;2023-05-18T00:17:54;7.60;99.90
21306;DHT22;10812;51.838;5.838;2023-05-18T00:20:23;7.60;99.90
21306;DHT22;10812;51.838;5.838;2023-05-18T00:22:52;7.50;99.90
21306;DHT22;10812;51.838;5.838;2023-05-18T00:25:20;7.50;99.90
21306;DHT22;10812;51.838;5.838;2023-05-18T00:27:50;7.50;99.90
21306;DHT22;10812;51.838;5.838;2023-05-18T00:30:18;7.50;99.90
21306;DHT22;10812;51.838;5.838;2023-05-18T00:32:46;7.40;99.90
21306;DHT22;10812;51.838;5.838;2023-05-18T00:35:14;7.40;99.90
21306;DHT22;10812;51.838;5.838;2023-05-18T00:37:42;7.40;99.90
21306;DHT22;10812;51.838;5.838;2023-05-18T00:40:11;7.40;99.90
21306;DHT22;10812;51.838;5.838;2023-05-18T00:42:39;7.30;99.90
21306;DHT22;10812;51.838;5.838;2023-05-18T00:45:09;7.30;99.90
21306;DHT22;10812;51.838;5.838;2023-05-18T00:47:38;7.40;99.90
21306;DHT22;10812;51.838;5.838;2023-05-18T00:50:07;7.30;99.90
21306;DHT22;10812;51.838;5.838;2023-05-18T00:52:35;7.30;99.90
21306;DHT22;10812;51.838;5.838;2023-05-18T00:55:05;7.20;99.90
21306;DHT22;10812;51.838;5.838;2023-05-18T00:57:33;7.20;99.90
21306;DHT22;10812;51.838;5.838;2023-05-18T01:00:05;7.20;99.90
21306;DHT22;10812;51.838;5.838;2023-05-18T01:02:38;7.20;99.90
21306;DHT22;10812;51.838;5.838;2023-05-18T01:05:08;7.10;99.90
21306;DHT22;10812;51.838;5.838;2023-05-18T01:07:38;7.10;99.90
21306;DHT22;10812;51.838;5.838;2023-05-18T01:10:10;7.10;99.90
21306;DHT22;10812;51.838;5.838;2023-05-18T01:12:42;7.00;99.90
21306;DHT22;10812;51.838;5.838;2023-05-18T01:15:14;7.00;99.90
21306;DHT22;10812;51.838;5.838;2023-05-18T01:17:54;7.00;99.90
21306;DHT22;10812;51.838;5.838;2023-05-18T01:20:30;7.00;99.90
21306;DHT22;10812;51.838;5.838;2023-05-18T01:23:24;6.90;99.90
21306;DHT22;10812;51.838;5.838;2023-05-18T01:26:14;6.90;99.90
21306;DHT22;10812;51.838;5.838;2023-05-18T01:28:44;6.80;99.90
21306;DHT22;10812;51.838;5.838;2023-05-18T01:31:14;6.80;99.90
21306;DHT22;10812;51.838;5.838;2023-05-18T01:33:43;6.80;99.90
21306;DHT22;10812;51.838;5.838;2023-05-18T01:36:11;6.80;99.90
21306;DHT22;10812;51.838;5.838;2023-05-18T01:38:39;6.80;99.90
21306;DHT22;10812;51.838;5.838;2023-05-18T01:41:17;6.80;99.90
21306;DHT22;10812;51.838;5.838;2023-05-18T01:43:54;6.80;99.90
21306;DHT22;10812;51.838;5.838;2023-05-18T01:46:33;6.70;99.90
21306;DHT22;10812;51.838;5.838;2023-05-18T01:49:07;6.60;99.90
21306;DHT22;10812;51.838;5.838;2023-05-18T01:51:43;6.70;99.90
21306;DHT22;10812;51.838;5.838;2023-05-18T01:54:15;6.60;99.90
21306;DHT22;10812;51.838;5.838;2023-05-18T01:56:46;6.60;99.90
21306;DHT22;10812;51.838;5.838;2023-05-18T01:59:16;6.70;99.90
21306;DHT22;10812;51.838;5.838;2023-05-18T02:01:44;6.60;99.90
21306;DHT22;10812;51.838;5.838;2023-05-18T02:04:12;6.60;99.90
21306;DHT22;10812;51.838;5.838;2023-05-18T02:06:41;6.60;99.90
21306;DHT22;10812;51.838;5.838;2023-05-18T02:09:09;6.60;99.90
21306;DHT22;10812;51.838;5.838;2023-05-18T02:11:38;6.60;99.90
21306;DHT22;10812;51.838;5.838;2023-05-18T02:14:07;6.60;99.90
21306;DHT22;10812;51.838;5.838;2023-05-18T02:16:35;6.60;99.90
21306;DHT22;10812;51.838;5.838;2023-05-18T02:19:04;6.50;99.90
21306;DHT22;10812;51.838;5.838;2023-05-18T02:21:32;6.50;99.90
21306;DHT22;10812;51.838;5.838;2023-05-18T02:24:01;6.50;99.90
21306;DHT22;10812;51.838;5.838;2023-05-18T02:26:29;6.50;99.90
21306;DHT22;10812;51.838;5.838;2023-05-18T02:28:57;6.50;99.90
21306;DHT22;10812;51.838;5.838;2023-05-18T02:31:26;6.50;99.90
21306;DHT22;10812;51.838;5.838;2023-05-18T02:33:55;6.50;99.90
21306;DHT22;10812;51.838;5.838;2023-05-18T02:36:23;6.50;99.90
21306;DHT22;10812;51.838;5.838;2023-05-18T02:38:52;6.40;99.90
21306;DHT22;10812;51.838;5.838;2023-05-18T02:41:20;6.40;99.90
21306;DHT22;10812;51.838;5.838;2023-05-18T02:43:49;6.40;99.90
21306;DHT22;10812;51.838;5.838;2023-05-18T02:46:17;6.30;99.90
21306;DHT22;10812;51.838;5.838;2023-05-18T02:48:47;6.30;99.90
21306;DHT22;10812;51.838;5.838;2023-05-18T02:51:15;6.30;99.90
21306;DHT22;10812;51.838;5.838;2023-05-18T02:53:43;6.30;99.90
21306;DHT22;10812;51.838;5.838;2023-05-18T02:56:11;6.30;99.90
21306;DHT22;10812;51.838;5.838;2023-05-18T02:58:39;6.20;99.90
21306;DHT22;10812;51.838;5.838;2023-05-18T03:06:41;6.20;99.90
21306;DHT22;10812;51.838;5.838;2023-05-18T03:09:12;6.20;99.90
21306;DHT22;10812;51.838;5.838;2023-05-18T03:11:41;6.20;99.90
21306;DHT22;10812;51.838;5.838;2023-05-18T03:14:09;6.10;99.90
21306;DHT22;10812;51.838;5.838;2023-05-18T03:16:38;6.10;99.90
21306;DHT22;10812;51.838;5.838;2023-05-18T03:19:06;6.10;99.90
21306;DHT22;10812;51.838;5.838;2023-05-18T03:21:34;6.10;99.90
21306;DHT22;10812;51.838;5.838;2023-05-18T03:24:04;6.10;99.90
21306;DHT22;10812;51.838;5.838;2023-05-18T03:26:33;6.10;99.90
21306;DHT22;10812;51.838;5.838;2023-05-18T03:29:01;6.10;99.90
21306;DHT22;10812;51.838;5.838;2023-05-18T03:31:29;6.00;99.90
21306;DHT22;10812;51.838;5.838;2023-05-18T03:33:57;6.00;99.90
21306;DHT22;10812;51.838;5.838;2023-05-18T03:36:25;6.00;99.90
21306;DHT22;10812;51.838;5.838;2023-05-18T03:38:54;6.00;99.90
21306;DHT22;10812;51.838;5.838;2023-05-18T03:41:24;6.10;99.90
21306;DHT22;10812;51.838;5.838;2023-05-18T03:43:52;6.10;99.90
21306;DHT22;10812;51.838;5.838;2023-05-18T03:46:20;6.00;99.90
21306;DHT22;10812;51.838;5.838;2023-05-18T03:48:48;6.10;99.90
21306;DHT22;10812;51.838;5.838;2023-05-18T03:51:17;6.10;99.90
21306;DHT22;10812;51.838;5.838;2023-05-18T03:53:45;6.00;99.90
21306;DHT22;10812;51.838;5.838;2023-05-18T03:56:14;6.10;99.90
21306;DHT22;10812;51.838;5.838;2023-05-18T03:58:43;6.10;99.90
21306;DHT22;10812;51.838;5.838;2023-05-18T04:01:12;6.10;99.90
21306;DHT22;10812;51.838;5.838;2023-05-18T04:03:40;6.20;99.90
21306;DHT22;10812;51.838;5.838;2023-05-18T04:06:08;6.20;99.90
21306;DHT22;10812;51.838;5.838;2023-05-18T04:08:36;6.30;99.90
21306;DHT22;10812;51.838;5.838;2023-05-18T04:11:06;6.30;99.90
21306;DHT22;10812;51.838;5.838;2023-05-18T04:13:37;6.30;99.90
21306;DHT22;10812;51.838;5.838;2023-05-18T04:16:07;6.50;99.90
21306;DHT22;10812;51.838;5.838;2023-05-18T04:18:36;6.60;99.90
21306;DHT22;10812;51.838;5.838;2023-05-18T04:21:07;6.50;99.90
21306;DHT22;10812;51.838;5.838;2023-05-18T04:23:35;6.60;99.90
21306;DHT22;10812;51.838;5.838;2023-05-18T04:26:05;6.60;99.90
21306;DHT22;10812;51.838;5.838;2023-05-18T04:28:34;6.60;99.90
21306;DHT22;10812;51.838;5.838;2023-05-18T04:31:05;6.60;99.90
21306;DHT22;10812;51.838;5.838;2023-05-18T04:33:33;6.60;99.90
21306;DHT22;10812;51.838;5.838;2023-05-18T04:36:02;6.60;99.90
21306;DHT22;10812;51.838;5.838;2023-05-18T04:38:32;6.70;99.90
21306;DHT22;10812;51.838;5.838;2023-05-18T04:41:01;6.70;99.90
21306;DHT22;10812;51.838;5.838;2023-05-18T04:43:32;6.70;99.90
21306;DHT22;10812;51.838;5.838;2023-05-18T04:46:02;6.80;99.90
21306;DHT22;10812;51.838;5.838;2023-05-18T04:48:34;6.90;99.90
21306;DHT22;10812;51.838;5.838;2023-05-18T04:51:03;7.00;99.90
21306;DHT22;10812;51.838;5.838;2023-05-18T04:53:32;7.10;99.90
21306;DHT22;10812;51.838;5.838;2023-05-18T04:56:00;7.30;99.90
21306;DHT22;10812;51.838;5.838;2023-05-18T04:58:28;7.40;99.90
21306;DHT22;10812;51.838;5.838;2023-05-18T05:00:57;7.40;99.90
21306;DHT22;10812;51.838;5.838;2023-05-18T05:03:25;7.40;99.90
21306;DHT22;10812;51.838;5.838;2023-05-18T05:05:55;7.60;99.90
21306;DHT22;10812;51.838;5.838;2023-05-18T05:08:23;7.70;99.90
21306;DHT22;10812;51.838;5.838;2023-05-18T05:10:51;7.60;99.90
21306;DHT22;10812;51.838;5.838;2023-05-18T05:13:20;7.50;99.90
21306;DHT22;10812;51.838;5.838;2023-05-18T05:15:48;7.40;99.90
21306;DHT22;10812;51.838;5.838;2023-05-18T05:18:16;7.60;99.90
21306;DHT22;10812;51.838;5.838;2023-05-18T05:20:44;7.70;99.90
21306;DHT22;10812;51.838;5.838;2023-05-18T05:23:14;7.70;99.90
21306;DHT22;10812;51.838;5.838;2023-05-18T05:25:42;7.70;99.90
21306;DHT22;10812;51.838;5.838;2023-05-18T05:28:10;7.70;99.90
21306;DHT22;10812;51.838;5.838;2023-05-18T05:30:38;7.70;99.90
21306;DHT22;10812;51.838;5.838;2023-05-18T05:33:06;7.80;99.90
21306;DHT22;10812;51.838;5.838;2023-05-18T05:35:35;7.90;99.90
21306;DHT22;10812;51.838;5.838;2023-05-18T05:38:03;7.90;99.90
21306;DHT22;10812;51.838;5.838;2023-05-18T05:40:33;8.10;99.90
21306;DHT22;10812;51.838;5.838;2023-05-18T05:43:03;8.10;99.90
21306;DHT22;10812;51.838;5.838;2023-05-18T05:45:31;8.20;99.90
21306;DHT22;10812;51.838;5.838;2023-05-18T05:47:59;8.20;99.90
21306;DHT22;10812;51.838;5.838;2023-05-18T05:50:28;8.20;99.90
21306;DHT22;10812;51.838;5.838;2023-05-18T05:52:56;8.50;99.90
21306;DHT22;10812;51.838;5.838;2023-05-18T05:55:24;8.60;99.90
21306;DHT22;10812;51.838;5.838;2023-05-18T05:57:54;8.60;99.90
21306;DHT22;10812;51.838;5.838;2023-05-18T06:00:22;8.50;99.90
21306;DHT22;10812;51.838;5.838;2023-05-18T06:02:51;8.60;99.90
21306;DHT22;10812;51.838;5.838;2023-05-18T06:05:19;8.70;99.90
21306;DHT22;10812;51.838;5.838;2023-05-18T06:07:47;8.70;99.90
21306;DHT22;10812;51.838;5.838;2023-05-18T06:10:15;8.70;99.90
21306;DHT22;10812;51.838;5.838;2023-05-18T06:12:43;9.00;99.90
21306;DHT22;10812;51.838;5.838;2023-05-18T06:15:13;9.40;99.90
21306;DHT22;10812;51.838;5.838;2023-05-18T06:17:41;10.00;99.90
21306;DHT22;10812;51.838;5.838;2023-05-18T06:20:11;10.60;99.90
21306;DHT22;10812;51.838;5.838;2023-05-18T06:22:40;10.90;99.90
21306;DHT22;10812;51.838;5.838;2023-05-18T06:25:09;10.90;99.90
21306;DHT22;10812;51.838;5.838;2023-05-18T06:27:37;11.70;99.90
21306;DHT22;10812;51.838;5.838;2023-05-18T06:30:07;11.30;99.90
21306;DHT22;10812;51.838;5.838;2023-05-18T06:32:38;12.00;99.90
21306;DHT22;10812;51.838;5.838;2023-05-18T06:42:18;11.90;99.90
21306;DHT22;10812;51.838;5.838;2023-05-18T06:44:46;11.90;99.90
21306;DHT22;10812;51.838;5.838;2023-05-18T06:47:16;12.40;99.90
21306;DHT22;10812;51.838;5.838;2023-05-18T06:49:45;13.40;99.90
21306;DHT22;10812;51.838;5.838;2023-05-18T06:52:13;13.60;99.90
21306;DHT22;10812;51.838;5.838;2023-05-18T06:54:42;13.60;99.90
21306;DHT22;10812;51.838;5.838;2023-05-18T06:57:10;13.80;99.90
21306;DHT22;10812;51.838;5.838;2023-05-18T06:59:38;15.10;99.90
21306;DHT22;10812;51.838;5.838;2023-05-18T07:02:07;15.30;99.90
21306;DHT22;10812;51.838;5.838;2023-05-18T07:04:35;15.40;99.90
21306;DHT22;10812;51.838;5.838;2023-05-18T07:07:04;16.00;99.90
21306;DHT22;10812;51.838;5.838;2023-05-18T07:09:33;16.70;99.90
21306;DHT22;10812;51.838;5.838;2023-05-18T07:12:03;17.60;99.80
21306;DHT22;10812;51.838;5.838;2023-05-18T07:14:31;17.70;98.40
21306;DHT22;10812;51.838;5.838;2023-05-18T07:16:59;18.70;97.00
21306;DHT22;10812;51.838;5.838;2023-05-18T07:19:28;18.30;97.10
21306;DHT22;10812;51.838;5.838;2023-05-18T07:21:56;18.30;96.20
21306;DHT22;10812;51.838;5.838;2023-05-18T07:24:26;16.70;97.60
21306;DHT22;10812;51.838;5.838;2023-05-18T07:26:54;16.00;98.80
21306;DHT22;10812;51.838;5.838;2023-05-18T07:29:26;15.70;99.30
21306;DHT22;10812;51.838;5.838;2023-05-18T07:31:54;15.20;99.80
21306;DHT22;10812;51.838;5.838;2023-05-18T07:34:22;14.90;99.90
21306;DHT22;10812;51.838;5.838;2023-05-18T07:36:52;15.00;99.90
21306;DHT22;10812;51.838;5.838;2023-05-18T07:39:20;16.30;99.30
21306;DHT22;10812;51.838;5.838;2023-05-18T07:41:55;16.50;98.30
21306;DHT22;10812;51.838;5.838;2023-05-18T07:44:24;15.60;99.00
21306;DHT22;10812;51.838;5.838;2023-05-18T07:46:52;15.00;99.90
21306;DHT22;10812;51.838;5.838;2023-05-18T07:49:20;15.20;99.90
21306;DHT22;10812;51.838;5.838;2023-05-18T07:51:49;15.70;99.10
21306;DHT22;10812;51.838;5.838;2023-05-18T07:54:17;16.20;99.00
21306;DHT22;10812;51.838;5.838;2023-05-18T07:56:46;16.40;98.40
21306;DHT22;10812;51.838;5.838;2023-05-18T07:59:15;17.10;98.00
21306;DHT22;10812;51.838;5.838;2023-05-18T08:01:43;18.40;96.80
21306;DHT22;10812;51.838;5.838;2023-05-18T08:04:12;18.40;96.00
21306;DHT22;10812;51.838;5.838;2023-05-18T08:06:40;19.40;95.10
21306;DHT22;10812;51.838;5.838;2023-05-18T08:09:08;19.90;94.60
21306;DHT22;10812;51.838;5.838;2023-05-18T08:11:36;19.10;94.60
21306;DHT22;10812;51.838;5.838;2023-05-18T08:14:05;18.80;94.70
21306;DHT22;10812;51.838;5.838;2023-05-18T08:16:34;18.80;94.30
21306;DHT22;10812;51.838;5.838;2023-05-18T08:19:03;17.70;95.20
21306;DHT22;10812;51.838;5.838;2023-05-18T08:21:31;18.00;94.60
21306;DHT22;10812;51.838;5.838;2023-05-18T08:24:01;18.00;95.20
21306;DHT22;10812;51.838;5.838;2023-05-18T08:26:29;17.90;95.10
21306;DHT22;10812;51.838;5.838;2023-05-18T08:28:57;18.00;95.40
21306;DHT22;10812;51.838;5.838;2023-05-18T08:31:26;17.30;95.30
21306;DHT22;10812;51.838;5.838;2023-05-18T08:33:55;17.40;95.60
21306;DHT22;10812;51.838;5.838;2023-05-18T08:36:23;17.80;95.40
21306;DHT22;10812;51.838;5.838;2023-05-18T08:38:52;17.90;94.90
21306;DHT22;10812;51.838;5.838;2023-05-18T08:41:25;16.70;96.30
21306;DHT22;10812;51.838;5.838;2023-05-18T08:44:00;15.80;97.60
21306;DHT22;10812;51.838;5.838;2023-05-18T08:46:33;15.30;98.40
21306;DHT22;10812;51.838;5.838;2023-05-18T08:49:04;15.00;99.00
21306;DHT22;10812;51.838;5.838;2023-05-18T08:51:34;15.00;99.40
21306;DHT22;10812;51.838;5.838;2023-05-18T08:54:03;14.50;98.80
21306;DHT22;10812;51.838;5.838;2023-05-18T08:56:32;14.30;99.80
21306;DHT22;10812;51.838;5.838;2023-05-18T08:59:03;14.20;99.40
21306;DHT22;10812;51.838;5.838;2023-05-18T09:01:34;14.00;99.90
21306;DHT22;10812;51.838;5.838;2023-05-18T09:04:04;14.10;99.80
21306;DHT22;10812;51.838;5.838;2023-05-18T09:06:33;14.70;99.40
21306;DHT22;10812;51.838;5.838;2023-05-18T09:09:02;15.20;97.80
21306;DHT22;10812;51.838;5.838;2023-05-18T09:11:33;15.70;96.90
21306;DHT22;10812;51.838;5.838;2023-05-18T09:14:01;15.70;98.00
21306;DHT22;10812;51.838;5.838;2023-05-18T09:16:31;15.40;98.30
21306;DHT22;10812;51.838;5.838;2023-05-18T09:18:59;15.40;98.30
21306;DHT22;10812;51.838;5.838;2023-05-18T09:21:31;15.10;98.40
21306;DHT22;10812;51.838;5.838;2023-05-18T09:23:59;14.80;98.80
21306;DHT22;10812;51.838;5.838;2023-05-18T09:26:28;15.00;98.40
21306;DHT22;10812;51.838;5.838;2023-05-18T09:28:56;15.20;98.30
21306;DHT22;10812;51.838;5.838;2023-05-18T09:31:25;15.20;97.50
21306;DHT22;10812;51.838;5.838;2023-05-18T09:33:54;15.70;98.00
21306;DHT22;10812;51.838;5.838;2023-05-18T09:36:25;16.10;97.00
21306;DHT22;10812;51.838;5.838;2023-05-18T09:38:56;15.90;97.10
21306;DHT22;10812;51.838;5.838;2023-05-18T09:41:25;16.20;96.70
21306;DHT22;10812;51.838;5.838;2023-05-18T09:43:53;15.40;97.90
21306;DHT22;10812;51.838;5.838;2023-05-18T09:46:22;15.20;98.60
21306;DHT22;10812;51.838;5.838;2023-05-18T09:48:52;14.90;98.50
21306;DHT22;10812;51.838;5.838;2023-05-18T09:51:21;15.20;98.60
21306;DHT22;10812;51.838;5.838;2023-05-18T09:53:53;15.60;97.90
21306;DHT22;10812;51.838;5.838;2023-05-18T09:56:24;16.20;97.20
21306;DHT22;10812;51.838;5.838;2023-05-18T09:58:53;15.80;97.60
21306;DHT22;10812;51.838;5.838;2023-05-18T10:01:21;16.40;97.10
21306;DHT22;10812;51.838;5.838;2023-05-18T10:03:50;16.50;96.40
21306;DHT22;10812;51.838;5.838;2023-05-18T10:06:19;16.20;96.60
21306;DHT22;10812;51.838;5.838;2023-05-18T10:08:55;16.80;96.30
21306;DHT22;10812;51.838;5.838;2023-05-18T10:11:30;16.70;96.30
21306;DHT22;10812;51.838;5.838;2023-05-18T10:13:58;16.40;96.10
21306;DHT22;10812;51.838;5.838;2023-05-18T10:16:27;16.00;96.70
21306;DHT22;10812;51.838;5.838;2023-05-18T10:18:55;15.90;97.00
21306;DHT22;10812;51.838;5.838;2023-05-18T10:21:27;16.00;97.40
21306;DHT22;10812;51.838;5.838;2023-05-18T10:23:58;15.90;97.30
21306;DHT22;10812;51.838;5.838;2023-05-18T10:26:29;15.50;97.70
21306;DHT22;10812;51.838;5.838;2023-05-18T10:28:58;15.40;97.60
21306;DHT22;10812;51.838;5.838;2023-05-18T10:31:29;15.70;97.30
21306;DHT22;10812;51.838;5.838;2023-05-18T10:33:58;15.60;97.40
21306;DHT22;10812;51.838;5.838;2023-05-18T10:36:28;15.10;98.00
21306;DHT22;10812;51.838;5.838;2023-05-18T10:38:59;15.00;98.60
21306;DHT22;10812;51.838;5.838;2023-05-18T10:41:29;15.10;98.80
21306;DHT22;10812;51.838;5.838;2023-05-18T10:43:59;15.30;97.90
21306;DHT22;10812;51.838;5.838;2023-05-18T10:46:30;14.70;99.10
21306;DHT22;10812;51.838;5.838;2023-05-18T10:49:00;14.80;99.30
21306;DHT22;10812;51.838;5.838;2023-05-18T10:51:31;15.00;98.70
21306;DHT22;10812;51.838;5.838;2023-05-18T10:54:10;15.00;98.30
21306;DHT22;10812;51.838;5.838;2023-05-18T10:56:42;14.70;98.80
21306;DHT22;10812;51.838;5.838;2023-05-18T10:59:12;14.50;99.10
21306;DHT22;10812;51.838;5.838;2023-05-18T11:01:41;14.10;99.70
21306;DHT22;10812;51.838;5.838;2023-05-18T11:04:11;14.20;99.50
21306;DHT22;10812;51.838;5.838;2023-05-18T11:06:40;14.40;99.90
21306;DHT22;10812;51.838;5.838;2023-05-18T11:09:21;14.30;99.30
21306;DHT22;10812;51.838;5.838;2023-05-18T11:11:52;14.30;99.80
21306;DHT22;10812;51.838;5.838;2023-05-18T11:14:25;14.30;99.30
21306;DHT22;10812;51.838;5.838;2023-05-18T11:17:14;14.30;99.80
21306;DHT22;10812;51.838;5.838;2023-05-18T11:20:12;14.20;99.80
21306;DHT22;10812;51.838;5.838;2023-05-18T11:22:45;14.40;99.90
21306;DHT22;10812;51.838;5.838;2023-05-18T11:25:39;14.50;99.20
21306;DHT22;10812;51.838;5.838;2023-05-18T11:28:12;14.10;99.40
21306;DHT22;10812;51.838;5.838;2023-05-18T11:30:46;14.00;99.40
21306;DHT22;10812;51.838;5.838;2023-05-18T11:33:15;14.10;99.80
21306;DHT22;10812;51.838;5.838;2023-05-18T11:35:59;14.10;99.70
21306;DHT22;10812;51.838;5.838;2023-05-18T11:38:49;14.10;99.40
21306;DHT22;10812;51.838;5.838;2023-05-18T11:52:53;14.30;99.00
21306;DHT22;10812;51.838;5.838;2023-05-18T11:55:21;14.20;99.50
21306;DHT22;10812;51.838;5.838;2023-05-18T11:57:50;14.40;99.50
21306;DHT22;10812;51.838;5.838;2023-05-18T12:00:20;14.40;99.80
21306;DHT22;10812;51.838;5.838;2023-05-18T12:02:48;14.60;99.30
21306;DHT22;10812;51.838;5.838;2023-05-18T12:05:18;14.60;99.00
21306;DHT22;10812;51.838;5.838;2023-05-18T12:07:52;14.40;99.10
21306;DHT22;10812;51.838;5.838;2023-05-18T12:10:21;14.30;99.40
21306;DHT22;10812;51.838;5.838;2023-05-18T12:12:51;14.60;99.60
21306;DHT22;10812;51.838;5.838;2023-05-18T12:15:21;14.80;99.10
21306;DHT22;10812;51.838;5.838;2023-05-18T12:17:50;14.80;98.40
21306;DHT22;10812;51.838;5.838;2023-05-18T12:20:20;15.10;98.70
21306;DHT22;10812;51.838;5.838;2023-05-18T12:22:53;14.90;98.60
21306;DHT22;10812;51.838;5.838;2023-05-18T12:25:25;14.70;99.10
21306;DHT22;10812;51.838;5.838;2023-05-18T12:27:54;14.80;99.00
21306;DHT22;10812;51.838;5.838;2023-05-18T12:30:23;14.60;99.20
21306;DHT22;10812;51.838;5.838;2023-05-18T12:32:53;14.60;99.20
21306;DHT22;10812;51.838;5.838;2023-05-18T12:35:22;14.70;99.30
21306;DHT22;10812;51.838;5.838;2023-05-18T12:37:51;14.80;98.80
21306;DHT22;10812;51.838;5.838;2023-05-18T12:40:22;14.90;98.30
21306;DHT22;10812;51.838;5.838;2023-05-18T12:42:51;14.80;98.80
21306;DHT22;10812;51.838;5.838;2023-05-18T12:45:22;14.80;98.60
21306;DHT22;10812;51.838;5.838;2023-05-18T12:47:50;14.90;98.60
21306;DHT22;10812;51.838;5.838;2023-05-18T12:50:21;15.10;98.70
21306;DHT22;10812;51.838;5.838;2023-05-18T12:52:51;15.20;98.70
21306;DHT22;10812;51.838;5.838;2023-05-18T12:55:20;15.20;98.40
21306;DHT22;10812;51.838;5.838;2023-05-18T12:57:59;15.30;98.60
21306;DHT22;10812;51.838;5.838;2023-05-18T13:00:31;15.40;98.60
21306;DHT22;10812;51.838;5.838;2023-05-18T13:03:09;15.30;98.40
21306;DHT22;10812;51.838;5.838;2023-05-18T13:05:42;15.20;98.40
21306;DHT22;10812;51.838;5.838;2023-05-18T13:08:13;15.10;98.50
21306;DHT22;10812;51.838;5.838;2023-05-18T13:10:44;15.40;98.50
21306;DHT22;10812;51.838;5.838;2023-05-18T13:13:22;15.60;98.00
21306;DHT22;10812;51.838;5.838;2023-05-18T13:15:50;15.70;98.20
21306;DHT22;10812;51.838;5.838;2023-05-18T13:18:19;15.80;98.20
21306;DHT22;10812;51.838;5.838;2023-05-18T13:20:50;15.90;97.90
21306;DHT22;10812;51.838;5.838;2023-05-18T13:23:20;15.40;98.10
21306;DHT22;10812;51.838;5.838;2023-05-18T13:25:49;15.50;98.40
21306;DHT22;10812;51.838;5.838;2023-05-18T13:28:19;15.50;97.40
21306;DHT22;10812;51.838;5.838;2023-05-18T13:30:49;15.40;97.90
21306;DHT22;10812;51.838;5.838;2023-05-18T13:33:17;15.30;98.10
21306;DHT22;10812;51.838;5.838;2023-05-18T13:35:45;15.50;97.90
21306;DHT22;10812;51.838;5.838;2023-05-18T13:38:15;15.40;98.20
21306;DHT22;10812;51.838;5.838;2023-05-18T13:40:43;15.50;98.20
21306;DHT22;10812;51.838;5.838;2023-05-18T13:43:12;15.50;98.10
21306;DHT22;10812;51.838;5.838;2023-05-18T13:45:41;15.40;98.20
21306;DHT22;10812;51.838;5.838;2023-05-18T13:48:11;15.50;98.60
21306;DHT22;10812;51.838;5.838;2023-05-18T13:50:40;15.80;98.00
21306;DHT22;10812;51.838;5.838;2023-05-18T13:53:08;15.60;97.90
21306;DHT22;10812;51.838;5.838;2023-05-18T13:55:36;15.80;97.90
21306;DHT22;10812;51.838;5.838;2023-05-18T13:58:05;15.80;98.40
21306;DHT22;10812;51.838;5.838;2023-05-18T14:00:33;15.80;97.80
21306;DHT22;10812;51.838;5.838;2023-05-18T14:03:02;15.40;98.20
21306;DHT22;10812;51.838;5.838;2023-05-18T14:05:32;15.60;98.20
21306;DHT22;10812;51.838;5.838;2023-05-18T14:08:00;15.50;98.10
21306;DHT22;10812;51.838;5.838;2023-05-18T14:10:28;15.20;97.80
21306;DHT22;10812;51.838;5.838;2023-05-18T14:12:57;15.10;98.70
21306;DHT22;10812;51.838;5.838;2023-05-18T14:15:25;15.20;98.30
21306;DHT22;10812;51.838;5.838;2023-05-18T14:17:53;15.40;98.10
21306;DHT22;10812;51.838;5.838;2023-05-18T14:20:22;15.50;98.10
21306;DHT22;10812;51.838;5.838;2023-05-18T14:22:51;15.60;98.40
21306;DHT22;10812;51.838;5.838;2023-05-18T14:25:20;15.50;97.80
21306;DHT22;10812;51.838;5.838;2023-05-18T14:27:48;15.30;98.00
21306;DHT22;10812;51.838;5.838;2023-05-18T14:30:17;15.40;97.90
21306;DHT22;10812;51.838;5.838;2023-05-18T14:32:45;15.50;97.90
21306;DHT22;10812;51.838;5.838;2023-05-18T14:35:14;15.60;98.20
21306;DHT22;10812;51.838;5.838;2023-05-18T14:37:42;15.60;97.80
21306;DHT22;10812;51.838;5.838;2023-05-18T14:40:12;15.70;97.80
21306;DHT22;10812;51.838;5.838;2023-05-18T14:42:40;15.60;97.60
21306;DHT22;10812;51.838;5.838;2023-05-18T14:45:09;15.70;97.60
21306;DHT22;10812;51.838;5.838;2023-05-18T14:47:37;15.90;97.70
21306;DHT22;10812;51.838;5.838;2023-05-18T14:50:06;15.80;97.60
21306;DHT22;10812;51.838;5.838;2023-05-18T14:52:34;15.80;97.60
21306;DHT22;10812;51.838;5.838;2023-05-18T14:55:03;15.70;97.70
21306;DHT22;10812;51.838;5.838;2023-05-18T14:57:33;15.70;97.70
21306;DHT22;10812;51.838;5.838;2023-05-18T15:00:01;15.60;98.30
21306;DHT22;10812;51.838;5.838;2023-05-18T15:02:29;15.70;97.80
21306;DHT22;10812;51.838;5.838;2023-05-18T15:04:58;15.70;98.40
21306;DHT22;10812;51.838;5.838;2023-05-18T15:07:26;15.90;98.10
21306;DHT22;10812;51.838;5.838;2023-05-18T15:09:54;15.70;98.10
21306;DHT22;10812;51.838;5.838;2023-05-18T15:12:23;15.60;97.70
21306;DHT22;10812;51.838;5.838;2023-05-18T15:14:52;15.50;97.60
21306;DHT22;10812;51.838;5.838;2023-05-18T15:17:20;15.70;97.70
21306;DHT22;10812;51.838;5.838;2023-05-18T15:19:49;15.80;97.90
21306;DHT22;10812;51.838;5.838;2023-05-18T15:22:17;15.90;97.60
21306;DHT22;10812;51.838;5.838;2023-05-18T15:24:45;15.90;97.80
21306;DHT22;10812;51.838;5.838;2023-05-18T15:27:13;16.00;97.80
21306;DHT22;10812;51.838;5.838;2023-05-18T15:29:42;15.80;97.40
21306;DHT22;10812;51.838;5.838;2023-05-18T15:32:11;15.70;97.60
21306;DHT22;10812;51.838;5.838;2023-05-18T15:34:40;15.70;97.20
21306;DHT22;10812;51.838;5.838;2023-05-18T15:37:08;15.60;98.00
21306;DHT22;10812;51.838;5.838;2023-05-18T15:39:36;15.80;97.90
21306;DHT22;10812;51.838;5.838;2023-05-18T15:42:05;15.70;97.90
21306;DHT22;10812;51.838;5.838;2023-05-18T15:44:33;15.80;98.00
21306;DHT22;10812;51.838;5.838;2023-05-18T15:47:03;15.80;97.90
21306;DHT22;10812;51.838;5.838;2023-05-18T15:49:33;15.50;97.90
21306;DHT22;10812;51.838;5.838;2023-05-18T15:52:01;15.30;98.40
21306;DHT22;10812;51.838;5.838;2023-05-18T15:54:29;15.30;98.40
21306;DHT22;10812;51.838;5.838;2023-05-18T15:56:58;15.20;98.60
21306;DHT22;10812;51.838;5.838;2023-05-18T15:59:26;15.30;98.30
21306;DHT22;10812;51.838;5.838;2023-05-18T16:01:55;15.30;98.90
21306;DHT22;10812;51.838;5.838;2023-05-18T16:04:23;15.20;98.20
21306;DHT22;10812;51.838;5.838;2023-05-18T16:06:52;15.10;98.10
21306;DHT22;10812;51.838;5.838;2023-05-18T16:09:21;15.10;98.30
21306;DHT22;10812;51.838;5.838;2023-05-18T16:11:49;15.20;98.30
21306;DHT22;10812;51.838;5.838;2023-05-18T16:14:17;15.20;98.10
21306;DHT22;10812;51.838;5.838;2023-05-18T16:16:45;15.10;98.30